sensor_id;sensor_type;location;lat;lon;timestamp;P1;P2;P0
44881;PMS5003;30612;38.304;23.786;2024-02-23T00:02:20;10.40;5.00;2.00
44881;PMS5003;30612;38.304;23.786;2024-02-23T00:04:48;6.60;5.80;2.00
44881;PMS5003;30612;38.304;23.786;2024-02-23T00:07:15;4.00;4.00;1.80
44881;PMS5003;30612;38.304;23.786;2024-02-23T00:09:42;12.80;10.00;5.00
44881;PMS5003;30612;38.304;23.786;2024-02-23T00:12:10;13.80;12.80;5.00
44881;PMS5003;30612;38.304;23.786;2024-02-23T00:14:37;12.00;10.60;5.80
44881;PMS5003;30612;38.304;23.786;2024-02-23T00:17:05;14.80;11.80;6.20
44881;PMS5003;30612;38.304;23.786;2024-02-23T00:19:32;9.80;8.60;4.00
44881;PMS5003;30612;38.304;23.786;2024-02-23T00:21:59;9.60;8.40;4.00
44881;PMS5003;30612;38.304;23.786;2024-02-23T00:24:27;11.80;9.80;5.20
44881;PMS5003;30612;38.304;23.786;2024-02-23T00:26:54;5.00;5.00;2.80
44881;PMS5003;30612;38.304;23.786;2024-02-23T00:29:21;5.80;5.80;1.80
44881;PMS5003;30612;38.304;23.786;2024-02-23T00:31:49;5.40;5.00;1.00
44881;PMS5003;30612;38.304;23.786;2024-02-23T00:34:17;6.20;5.00;1.60
44881;PMS5003;30612;38.304;23.786;2024-02-23T00:36:44;5.00;4.80;1.00
44881;PMS5003;30612;38.304;23.786;2024-02-23T00:39:11;8.00;7.00;4.20
44881;PMS5003;30612;38.304;23.786;2024-02-23T00:41:39;4.00;4.00;2.00
44881;PMS5003;30612;38.304;23.786;2024-02-23T00:44:06;4.80;4.00;2.00
44881;PMS5003;30612;38.304;23.786;2024-02-23T00:46:34;2.00;2.00;0.60
44881;PMS5003;30612;38.304;23.786;2024-02-23T00:49:01;5.20;2.40;1.00
44881;PMS5003;30612;38.304;23.786;2024-02-23T00:51:29;4.20;4.20;1.80
44881;PMS5003;30612;38.304;23.786;2024-02-23T00:53:56;7.60;7.60;3.60
44881;PMS5003;30612;38.304;23.786;2024-02-23T00:56:23;7.60;6.20;2.80
44881;PMS5003;30612;38.304;23.786;2024-02-23T00:59:01;4.00;2.80;1.00
44881;PMS5003;30612;38.304;23.786;2024-02-23T01:01:29;3.60;2.40;1.00
44881;PMS5003;30612;38.304;23.786;2024-02-23T01:03:56;4.00;4.00;1.60
44881;PMS5003;30612;38.304;23.786;2024-02-23T01:06:23;4.00;4.00;1.00
44881;PMS5003;30612;38.304;23.786;2024-02-23T01:08:52;6.20;4.00;1.80
44881;PMS5003;30612;38.304;23.786;2024-02-23T01:11:19;3.40;1.80;1.00
44881;PMS5003;30612;38.304;23.786;2024-02-23T01:13:46;4.80;4.20;1.00
44881;PMS5003;30612;38.304;23.786;2024-02-23T01:16:14;1.60;1.20;0.00
44881;PMS5003;30612;38.304;23.786;2024-02-23T01:18:42;0.00;0.00;0.00
44881;PMS5003;30612;38.304;23.786;2024-02-23T01:21:10;4.60;2.40;1.40
44881;PMS5003;30612;38.304;23.786;2024-02-23T01:23:37;4.00;4.00;1.80
44881;PMS5003;30612;38.304;23.786;2024-02-23T01:26:04;3.20;3.20;1.00
44881;PMS5003;30612;38.304;23.786;2024-02-23T01:28:32;6.20;3.80;1.80
44881;PMS5003;30612;38.304;23.786;2024-02-23T01:30:59;2.00;2.00;1.20
44881;PMS5003;30612;38.304;23.786;2024-02-23T01:33:27;2.40;1.40;0.00
44881;PMS5003;30612;38.304;23.786;2024-02-23T01:35:55;7.00;4.40;2.00
44881;PMS5003;30612;38.304;23.786;2024-02-23T01:38:24;5.00;5.00;1.00
44881;PMS5003;30612;38.304;23.786;2024-02-23T01:40:52;10.60;6.60;2.00
44881;PMS5003;30612;38.304;23.786;2024-02-23T01:43:19;11.40;8.40;4.00
44881;PMS5003;30612;38.304;23.786;2024-02-23T01:45:46;4.60;4.20;1.00
44881;PMS5003;30612;38.304;23.786;2024-02-23T01:48:14;10.20;7.40;2.00
44881;PMS5003;30612;38.304;23.786;2024-02-23T01:50:42;7.00;5.80;2.00
44881;PMS5003;30612;38.304;23.786;2024-02-23T01:53:10;8.00;4.00;1.60
44881;PMS5003;30612;38.304;23.786;2024-02-23T01:55:42;9.20;7.40;3.20
44881;PMS5003;30612;38.304;23.786;2024-02-23T01:58:10;4.00;4.00;1.00
44881;PMS5003;30612;38.304;23.786;2024-02-23T02:00:37;5.00;4.20;1.80
44881;PMS5003;30612;38.304;23.786;2024-02-23T02:03:04;4.00;4.00;1.00
44881;PMS5003;30612;38.304;23.786;2024-02-23T02:05:37;10.00;9.20;4.80
44881;PMS5003;30612;38.304;23.786;2024-02-23T02:08:04;8.00;6.20;1.80
44881;PMS5003;30612;38.304;23.786;2024-02-23T02:10:32;8.60;8.60;4.60
44881;PMS5003;30612;38.304;23.786;2024-02-23T02:13:03;4.00;4.00;2.00
44881;PMS5003;30612;38.304;23.786;2024-02-23T02:15:31;7.00;4.40;1.60
44881;PMS5003;30612;38.304;23.786;2024-02-23T02:17:58;4.80;4.80;1.00
44881;PMS5003;30612;38.304;23.786;2024-02-23T02:20:26;6.20;5.00;2.00
44881;PMS5003;30612;38.304;23.786;2024-02-23T02:22:55;14.40;13.00;4.80
44881;PMS5003;30612;38.304;23.786;2024-02-23T02:25:22;10.20;8.00;4.80
44881;PMS5003;30612;38.304;23.786;2024-02-23T02:27:50;9.00;7.60;2.00
44881;PMS5003;30612;38.304;23.786;2024-02-23T02:30:17;10.20;8.00;4.00
44881;PMS5003;30612;38.304;23.786;2024-02-23T02:32:44;5.00;5.00;1.20
44881;PMS5003;30612;38.304;23.786;2024-02-23T02:35:12;7.60;4.60;1.00
44881;PMS5003;30612;38.304;23.786;2024-02-23T02:37:39;9.80;7.60;3.20
44881;PMS5003;30612;38.304;23.786;2024-02-23T02:40:07;7.20;4.20;1.00
44881;PMS5003;30612;38.304;23.786;2024-02-23T02:42:34;9.00;5.00;2.00
44881;PMS5003;30612;38.304;23.786;2024-02-23T02:45:02;6.60;4.00;1.00
44881;PMS5003;30612;38.304;23.786;2024-02-23T02:47:29;1.20;1.00;0.00
44881;PMS5003;30612;38.304;23.786;2024-02-23T02:49:57;3.20;1.80;1.00
44881;PMS5003;30612;38.304;23.786;2024-02-23T02:52:24;10.80;10.80;5.40
44881;PMS5003;30612;38.304;23.786;2024-02-23T02:54:52;13.20;10.20;4.40
44881;PMS5003;30612;38.304;23.786;2024-02-23T02:57:19;7.00;7.00;2.80
44881;PMS5003;30612;38.304;23.786;2024-02-23T02:59:47;6.20;5.40;2.00
44881;PMS5003;30612;38.304;23.786;2024-02-23T03:02:17;5.00;5.00;1.60
44881;PMS5003;30612;38.304;23.786;2024-02-23T03:04:48;5.00;4.60;1.20
44881;PMS5003;30612;38.304;23.786;2024-02-23T03:07:16;7.40;5.00;1.60
44881;PMS5003;30612;38.304;23.786;2024-02-23T03:09:44;4.60;2.80;1.00
44881;PMS5003;30612;38.304;23.786;2024-02-23T03:12:11;5.60;4.40;2.00
44881;PMS5003;30612;38.304;23.786;2024-02-23T03:14:39;13.40;13.40;7.80
44881;PMS5003;30612;38.304;23.786;2024-02-23T03:17:07;16.20;10.40;4.60
44881;PMS5003;30612;38.304;23.786;2024-02-23T03:19:36;6.20;5.00;2.00
44881;PMS5003;30612;38.304;23.786;2024-02-23T03:22:04;5.40;5.40;2.00
44881;PMS5003;30612;38.304;23.786;2024-02-23T03:24:32;4.00;4.00;1.00
44881;PMS5003;30612;38.304;23.786;2024-02-23T03:26:59;4.20;4.20;1.60
44881;PMS5003;30612;38.304;23.786;2024-02-23T03:29:27;5.60;4.00;1.00
44881;PMS5003;30612;38.304;23.786;2024-02-23T03:31:58;5.80;5.20;1.80
44881;PMS5003;30612;38.304;23.786;2024-02-23T03:34:25;11.60;9.40;5.40
44881;PMS5003;30612;38.304;23.786;2024-02-23T03:36:52;12.20;8.00;4.80
44881;PMS5003;30612;38.304;23.786;2024-02-23T03:39:20;7.00;5.60;2.20
44881;PMS5003;30612;38.304;23.786;2024-02-23T03:41:48;6.20;6.20;1.80
44881;PMS5003;30612;38.304;23.786;2024-02-23T03:44:15;5.80;5.80;1.40
44881;PMS5003;30612;38.304;23.786;2024-02-23T03:46:43;5.00;5.00;1.60
44881;PMS5003;30612;38.304;23.786;2024-02-23T03:49:10;10.00;6.80;2.20
44881;PMS5003;30612;38.304;23.786;2024-02-23T03:51:38;6.20;5.00;2.00
44881;PMS5003;30612;38.304;23.786;2024-02-23T03:54:06;9.00;7.00;1.80
44881;PMS5003;30612;38.304;23.786;2024-02-23T03:56:40;5.00;4.00;1.00
44881;PMS5003;30612;38.304;23.786;2024-02-23T03:59:10;7.60;7.40;3.60
44881;PMS5003;30612;38.304;23.786;2024-02-23T04:01:38;7.40;6.60;2.60
44881;PMS5003;30612;38.304;23.786;2024-02-23T04:04:06;8.40;6.20;2.00
44881;PMS5003;30612;38.304;23.786;2024-02-23T04:06:34;7.00;7.00;2.20
44881;PMS5003;30612;38.304;23.786;2024-02-23T04:09:02;4.80;4.80;2.00
44881;PMS5003;30612;38.304;23.786;2024-02-23T04:11:32;10.40;10.40;5.80
44881;PMS5003;30612;38.304;23.786;2024-02-23T04:13:59;15.00;11.20;5.00
44881;PMS5003;30612;38.304;23.786;2024-02-23T04:16:27;10.40;7.60;4.60
44881;PMS5003;30612;38.304;23.786;2024-02-23T04:18:54;8.80;8.80;4.00
44881;PMS5003;30612;38.304;23.786;2024-02-23T04:21:23;10.60;7.00;2.20
44881;PMS5003;30612;38.304;23.786;2024-02-23T04:23:51;8.60;7.20;4.00
44881;PMS5003;30612;38.304;23.786;2024-02-23T04:26:18;10.60;10.60;4.40
44881;PMS5003;30612;38.304;23.786;2024-02-23T04:28:45;7.80;5.20;2.20
44881;PMS5003;30612;38.304;23.786;2024-02-23T04:31:12;8.20;7.60;3.20
44881;PMS5003;30612;38.304;23.786;2024-02-23T04:33:40;18.60;12.60;6.40
44881;PMS5003;30612;38.304;23.786;2024-02-23T04:36:08;11.60;11.60;6.80
44881;PMS5003;30612;38.304;23.786;2024-02-23T04:38:35;16.20;15.40;6.60
44881;PMS5003;30612;38.304;23.786;2024-02-23T04:41:03;10.20;10.20;4.40
44881;PMS5003;30612;38.304;23.786;2024-02-23T04:43:31;9.00;7.40;4.00
44881;PMS5003;30612;38.304;23.786;2024-02-23T04:45:59;8.40;8.00;2.40
44881;PMS5003;30612;38.304;23.786;2024-02-23T04:48:26;15.20;9.20;2.80
44881;PMS5003;30612;38.304;23.786;2024-02-23T04:50:54;9.80;8.20;4.00
44881;PMS5003;30612;38.304;23.786;2024-02-23T04:53:21;7.60;7.60;4.20
44881;PMS5003;30612;38.304;23.786;2024-02-23T04:55:49;10.00;8.60;3.80
44881;PMS5003;30612;38.304;23.786;2024-02-23T04:58:16;4.20;4.20;2.20
44881;PMS5003;30612;38.304;23.786;2024-02-23T05:00:43;8.80;5.20;3.60
44881;PMS5003;30612;38.304;23.786;2024-02-23T05:03:11;4.80;4.80;2.40
44881;PMS5003;30612;38.304;23.786;2024-02-23T05:05:39;7.00;7.00;2.40
44881;PMS5003;30612;38.304;23.786;2024-02-23T05:08:06;7.00;7.00;3.80
44881;PMS5003;30612;38.304;23.786;2024-02-23T05:10:34;11.60;7.20;2.80
44881;PMS5003;30612;38.304;23.786;2024-02-23T05:13:02;6.80;6.80;3.00
44881;PMS5003;30612;38.304;23.786;2024-02-23T05:15:29;12.80;9.80;4.00
44881;PMS5003;30612;38.304;23.786;2024-02-23T05:17:57;10.80;9.60;6.00
44881;PMS5003;30612;38.304;23.786;2024-02-23T05:20:24;10.00;10.00;6.60
44881;PMS5003;30612;38.304;23.786;2024-02-23T05:22:52;14.80;13.00;6.60
44881;PMS5003;30612;38.304;23.786;2024-02-23T05:25:19;12.00;8.60;3.80
44881;PMS5003;30612;38.304;23.786;2024-02-23T05:27:47;10.20;7.20;2.20
44881;PMS5003;30612;38.304;23.786;2024-02-23T05:30:14;10.40;5.40;3.20
44881;PMS5003;30612;38.304;23.786;2024-02-23T05:32:41;4.80;4.80;1.00
44881;PMS5003;30612;38.304;23.786;2024-02-23T05:35:09;7.40;7.00;3.20
44881;PMS5003;30612;38.304;23.786;2024-02-23T05:37:37;7.00;7.00;4.00
44881;PMS5003;30612;38.304;23.786;2024-02-23T05:40:04;6.80;4.80;2.20
44881;PMS5003;30612;38.304;23.786;2024-02-23T05:42:39;6.40;4.80;2.00
44881;PMS5003;30612;38.304;23.786;2024-02-23T05:45:07;11.40;7.80;4.00
44881;PMS5003;30612;38.304;23.786;2024-02-23T05:47:38;5.80;2.40;1.00
44881;PMS5003;30612;38.304;23.786;2024-02-23T05:50:09;8.00;8.00;4.00
44881;PMS5003;30612;38.304;23.786;2024-02-23T05:52:36;7.00;4.80;2.00
44881;PMS5003;30612;38.304;23.786;2024-02-23T05:55:04;5.40;5.40;2.00
44881;PMS5003;30612;38.304;23.786;2024-02-23T05:57:32;7.00;7.00;2.40
44881;PMS5003;30612;38.304;23.786;2024-02-23T05:59:59;8.20;7.00;2.00
44881;PMS5003;30612;38.304;23.786;2024-02-23T06:02:37;12.60;7.00;2.40
44881;PMS5003;30612;38.304;23.786;2024-02-23T06:05:05;4.80;4.80;1.80
44881;PMS5003;30612;38.304;23.786;2024-02-23T06:07:35;7.40;4.80;2.00
44881;PMS5003;30612;38.304;23.786;2024-02-23T06:10:04;8.40;5.80;1.80
44881;PMS5003;30612;38.304;23.786;2024-02-23T06:12:32;1.80;1.80;1.00
44881;PMS5003;30612;38.304;23.786;2024-02-23T06:14:59;4.60;4.60;2.00
44881;PMS5003;30612;38.304;23.786;2024-02-23T06:17:27;8.80;7.00;2.40
44881;PMS5003;30612;38.304;23.786;2024-02-23T06:19:54;4.20;4.00;1.40
44881;PMS5003;30612;38.304;23.786;2024-02-23T06:22:24;5.00;5.00;3.20
44881;PMS5003;30612;38.304;23.786;2024-02-23T06:24:52;6.40;6.40;2.00
44881;PMS5003;30612;38.304;23.786;2024-02-23T06:27:20;6.20;5.60;4.00
44881;PMS5003;30612;38.304;23.786;2024-02-23T06:29:48;4.00;4.00;2.00
44881;PMS5003;30612;38.304;23.786;2024-02-23T06:32:16;6.20;5.20;4.00
44881;PMS5003;30612;38.304;23.786;2024-02-23T06:34:43;5.00;5.00;3.00
44881;PMS5003;30612;38.304;23.786;2024-02-23T06:37:10;5.60;2.80;2.00
44881;PMS5003;30612;38.304;23.786;2024-02-23T06:39:38;3.40;3.40;1.40
44881;PMS5003;30612;38.304;23.786;2024-02-23T06:42:05;4.20;3.00;2.00
44881;PMS5003;30612;38.304;23.786;2024-02-23T06:44:33;6.20;6.20;3.00
44881;PMS5003;30612;38.304;23.786;2024-02-23T06:47:00;13.40;12.40;6.00
44881;PMS5003;30612;38.304;23.786;2024-02-23T06:49:28;6.60;5.60;3.00
44881;PMS5003;30612;38.304;23.786;2024-02-23T06:51:55;7.60;6.80;5.00
44881;PMS5003;30612;38.304;23.786;2024-02-23T06:54:23;14.20;11.20;6.00
44881;PMS5003;30612;38.304;23.786;2024-02-23T06:56:50;14.80;12.80;6.60
44881;PMS5003;30612;38.304;23.786;2024-02-23T06:59:17;16.40;15.20;9.40
44881;PMS5003;30612;38.304;23.786;2024-02-23T07:01:48;23.00;17.80;9.40
44881;PMS5003;30612;38.304;23.786;2024-02-23T07:04:16;20.20;18.00;8.00
44881;PMS5003;30612;38.304;23.786;2024-02-23T07:06:44;17.00;16.00;8.80
44881;PMS5003;30612;38.304;23.786;2024-02-23T07:09:11;20.80;18.40;9.00
44881;PMS5003;30612;38.304;23.786;2024-02-23T07:11:39;15.40;12.80;8.00
44881;PMS5003;30612;38.304;23.786;2024-02-23T07:14:09;15.40;13.80;8.00
44881;PMS5003;30612;38.304;23.786;2024-02-23T07:16:40;5.40;5.40;2.80
44881;PMS5003;30612;38.304;23.786;2024-02-23T07:19:07;10.00;10.00;6.00
44881;PMS5003;30612;38.304;23.786;2024-02-23T07:21:36;10.40;9.00;6.00
44881;PMS5003;30612;38.304;23.786;2024-02-23T07:24:08;7.40;6.00;2.80
44881;PMS5003;30612;38.304;23.786;2024-02-23T07:26:36;7.40;7.00;4.00
44881;PMS5003;30612;38.304;23.786;2024-02-23T07:29:03;8.20;8.20;4.80
44881;PMS5003;30612;38.304;23.786;2024-02-23T07:31:31;9.00;6.80;2.20
44881;PMS5003;30612;38.304;23.786;2024-02-23T07:33:59;6.00;5.60;3.00
44881;PMS5003;30612;38.304;23.786;2024-02-23T07:36:27;5.60;3.60;1.40
44881;PMS5003;30612;38.304;23.786;2024-02-23T07:38:54;8.60;7.80;3.00
44881;PMS5003;30612;38.304;23.786;2024-02-23T07:41:22;9.00;7.00;3.00
44881;PMS5003;30612;38.304;23.786;2024-02-23T07:43:49;3.20;3.20;2.60
44881;PMS5003;30612;38.304;23.786;2024-02-23T07:46:17;6.60;6.20;3.40
44881;PMS5003;30612;38.304;23.786;2024-02-23T07:48:45;8.80;8.80;4.00
44881;PMS5003;30612;38.304;23.786;2024-02-23T07:51:14;7.40;7.00;3.00
44881;PMS5003;30612;38.304;23.786;2024-02-23T07:53:41;8.00;5.20;3.80
44881;PMS5003;30612;38.304;23.786;2024-02-23T07:56:09;13.20;10.80;6.60
44881;PMS5003;30612;38.304;23.786;2024-02-23T07:58:37;8.80;8.80;4.00
44881;PMS5003;30612;38.304;23.786;2024-02-23T08:01:07;4.80;4.80;3.00
44881;PMS5003;30612;38.304;23.786;2024-02-23T08:03:35;9.00;8.00;3.80
44881;PMS5003;30612;38.304;23.786;2024-02-23T08:06:02;10.40;10.00;6.20
44881;PMS5003;30612;38.304;23.786;2024-02-23T08:08:30;11.80;9.40;5.00
44881;PMS5003;30612;38.304;23.786;2024-02-23T08:11:02;6.80;6.40;3.00
44881;PMS5003;30612;38.304;23.786;2024-02-23T08:13:30;6.60;6.60;3.00
44881;PMS5003;30612;38.304;23.786;2024-02-23T08:15:58;9.20;9.20;4.00
44881;PMS5003;30612;38.304;23.786;2024-02-23T08:18:25;15.20;12.60;7.20
44881;PMS5003;30612;38.304;23.786;2024-02-23T08:20:53;10.40;9.60;4.60
44881;PMS5003;30612;38.304;23.786;2024-02-23T08:23:21;12.00;10.80;6.20
44881;PMS5003;30612;38.304;23.786;2024-02-23T08:25:50;16.20;16.00;11.40
44881;PMS5003;30612;38.304;23.786;2024-02-23T08:28:17;12.00;12.00;5.00
44881;PMS5003;30612;38.304;23.786;2024-02-23T08:30:44;13.00;12.20;8.00
44881;PMS5003;30612;38.304;23.786;2024-02-23T08:33:12;10.20;9.80;5.80
44881;PMS5003;30612;38.304;23.786;2024-02-23T08:35:40;12.00;12.00;8.00
44881;PMS5003;30612;38.304;23.786;2024-02-23T08:38:07;12.40;12.40;7.20
44881;PMS5003;30612;38.304;23.786;2024-02-23T08:40:34;11.20;10.40;5.40
44881;PMS5003;30612;38.304;23.786;2024-02-23T08:43:02;11.20;9.60;6.00
44881;PMS5003;30612;38.304;23.786;2024-02-23T08:45:30;9.40;8.40;4.40
44881;PMS5003;30612;38.304;23.786;2024-02-23T08:47:57;9.20;8.80;4.00
44881;PMS5003;30612;38.304;23.786;2024-02-23T08:50:25;8.20;8.20;4.40
44881;PMS5003;30612;38.304;23.786;2024-02-23T08:52:52;13.60;13.20;7.40
44881;PMS5003;30612;38.304;23.786;2024-02-23T08:55:20;12.20;11.00;7.00
44881;PMS5003;30612;38.304;23.786;2024-02-23T08:57:48;13.60;11.20;7.00
44881;PMS5003;30612;38.304;23.786;2024-02-23T09:00:17;10.00;9.80;5.00
44881;PMS5003;30612;38.304;23.786;2024-02-23T09:02:45;7.00;6.20;3.40
44881;PMS5003;30612;38.304;23.786;2024-02-23T09:05:12;6.80;4.60;3.20
44881;PMS5003;30612;38.304;23.786;2024-02-23T09:07:40;4.40;4.40;2.80
44881;PMS5003;30612;38.304;23.786;2024-02-23T09:10:08;8.40;7.20;3.80
44881;PMS5003;30612;38.304;23.786;2024-02-23T09:12:36;8.40;8.00;4.00
44881;PMS5003;30612;38.304;23.786;2024-02-23T09:15:03;9.60;8.00;4.40
44881;PMS5003;30612;38.304;23.786;2024-02-23T09:17:32;8.00;8.00;4.60
44881;PMS5003;30612;38.304;23.786;2024-02-23T09:19:59;9.80;8.60;4.20
44881;PMS5003;30612;38.304;23.786;2024-02-23T09:22:27;11.40;11.00;5.00
44881;PMS5003;30612;38.304;23.786;2024-02-23T09:24:54;14.00;9.00;7.00
44881;PMS5003;30612;38.304;23.786;2024-02-23T09:27:23;11.60;11.00;7.80
44881;PMS5003;30612;38.304;23.786;2024-02-23T09:29:50;10.80;10.40;7.20
44881;PMS5003;30612;38.304;23.786;2024-02-23T09:32:18;9.40;8.60;4.40
44881;PMS5003;30612;38.304;23.786;2024-02-23T09:34:45;11.80;11.80;5.00
44881;PMS5003;30612;38.304;23.786;2024-02-23T09:37:13;9.20;8.20;4.00
44881;PMS5003;30612;38.304;23.786;2024-02-23T09:39:41;10.40;4.40;3.00
44881;PMS5003;30612;38.304;23.786;2024-02-23T09:42:09;7.00;7.00;3.20
44881;PMS5003;30612;38.304;23.786;2024-02-23T09:44:38;13.20;11.60;7.00
44881;PMS5003;30612;38.304;23.786;2024-02-23T09:47:06;8.00;7.60;3.60
44881;PMS5003;30612;38.304;23.786;2024-02-23T09:49:38;9.40;9.20;4.40
44881;PMS5003;30612;38.304;23.786;2024-02-23T09:52:07;10.00;10.00;5.00
44881;PMS5003;30612;38.304;23.786;2024-02-23T09:54:37;10.00;8.60;4.00
44881;PMS5003;30612;38.304;23.786;2024-02-23T09:57:08;13.60;13.20;7.80
44881;PMS5003;30612;38.304;23.786;2024-02-23T09:59:37;10.80;8.20;5.60
44881;PMS5003;30612;38.304;23.786;2024-02-23T10:02:09;11.00;9.60;6.60
44881;PMS5003;30612;38.304;23.786;2024-02-23T10:04:39;9.00;8.60;4.40
44881;PMS5003;30612;38.304;23.786;2024-02-23T10:07:07;6.60;6.60;4.00
44881;PMS5003;30612;38.304;23.786;2024-02-23T10:09:35;8.60;7.40;4.00
44881;PMS5003;30612;38.304;23.786;2024-02-23T10:12:03;6.40;6.40;2.00
44881;PMS5003;30612;38.304;23.786;2024-02-23T10:14:31;8.00;7.40;4.00
44881;PMS5003;30612;38.304;23.786;2024-02-23T10:16:58;10.80;10.80;4.80
44881;PMS5003;30612;38.304;23.786;2024-02-23T10:19:26;7.00;7.00;4.40
44881;PMS5003;30612;38.304;23.786;2024-02-23T10:21:56;4.40;4.00;1.60
44881;PMS5003;30612;38.304;23.786;2024-02-23T10:24:23;9.20;8.20;6.00
44881;PMS5003;30612;38.304;23.786;2024-02-23T10:26:52;7.00;6.60;3.40
44881;PMS5003;30612;38.304;23.786;2024-02-23T10:29:19;11.60;10.00;6.60
44881;PMS5003;30612;38.304;23.786;2024-02-23T10:31:48;7.20;7.20;3.00
44881;PMS5003;30612;38.304;23.786;2024-02-23T10:34:19;7.20;6.20;2.00
44881;PMS5003;30612;38.304;23.786;2024-02-23T10:36:47;4.00;4.00;2.00
44881;PMS5003;30612;38.304;23.786;2024-02-23T10:39:17;5.20;3.00;2.20
44881;PMS5003;30612;38.304;23.786;2024-02-23T10:41:56;6.00;6.00;2.80
44881;PMS5003;30612;38.304;23.786;2024-02-23T10:44:26;6.80;6.80;3.00
44881;PMS5003;30612;38.304;23.786;2024-02-23T10:46:55;7.00;7.00;3.40
44881;PMS5003;30612;38.304;23.786;2024-02-23T10:49:24;7.00;6.60;3.00
44881;PMS5003;30612;38.304;23.786;2024-02-23T10:51:54;5.00;4.80;2.60
44881;PMS5003;30612;38.304;23.786;2024-02-23T10:54:22;3.20;3.00;2.00
44881;PMS5003;30612;38.304;23.786;2024-02-23T10:56:50;4.40;4.40;2.00
44881;PMS5003;30612;38.304;23.786;2024-02-23T10:59:18;5.80;4.40;2.00
44881;PMS5003;30612;38.304;23.786;2024-02-23T11:01:49;4.40;4.40;2.00
44881;PMS5003;30612;38.304;23.786;2024-02-23T11:04:19;8.20;7.20;4.00
44881;PMS5003;30612;38.304;23.786;2024-02-23T11:07:12;8.80;4.00;2.00
44881;PMS5003;30612;38.304;23.786;2024-02-23T11:09:40;4.80;3.40;2.00
44881;PMS5003;30612;38.304;23.786;2024-02-23T11:12:08;8.60;8.00;3.60
44881;PMS5003;30612;38.304;23.786;2024-02-23T11:14:37;4.00;4.00;2.80
44881;PMS5003;30612;38.304;23.786;2024-02-23T11:17:05;4.20;3.80;2.40
44881;PMS5003;30612;38.304;23.786;2024-02-23T11:19:36;4.00;3.00;1.00
44881;PMS5003;30612;38.304;23.786;2024-02-23T11:22:10;5.20;4.00;2.00
44881;PMS5003;30612;38.304;23.786;2024-02-23T11:24:48;5.60;4.00;1.80
44881;PMS5003;30612;38.304;23.786;2024-02-23T11:27:21;6.00;3.40;1.80
44881;PMS5003;30612;38.304;23.786;2024-02-23T11:29:59;4.40;4.00;2.20
44881;PMS5003;30612;38.304;23.786;2024-02-23T11:32:37;3.20;3.20;1.20
44881;PMS5003;30612;38.304;23.786;2024-02-23T11:35:16;4.00;2.60;0.20
44881;PMS5003;30612;38.304;23.786;2024-02-23T11:37:47;4.80;4.80;1.40
44881;PMS5003;30612;38.304;23.786;2024-02-23T11:40:18;3.00;3.00;1.60
44881;PMS5003;30612;38.304;23.786;2024-02-23T11:42:46;3.00;3.00;1.40
44881;PMS5003;30612;38.304;23.786;2024-02-23T11:45:14;2.00;2.00;1.00
44881;PMS5003;30612;38.304;23.786;2024-02-23T11:47:42;6.20;3.00;1.80
44881;PMS5003;30612;38.304;23.786;2024-02-23T11:50:09;3.80;3.00;2.00
44881;PMS5003;30612;38.304;23.786;2024-02-23T11:52:38;4.00;3.80;2.00
44881;PMS5003;30612;38.304;23.786;2024-02-23T11:55:05;2.00;2.00;1.20
44881;PMS5003;30612;38.304;23.786;2024-02-23T11:57:34;1.20;1.20;0.00
44881;PMS5003;30612;38.304;23.786;2024-02-23T12:00:13;4.00;4.00;2.00
44881;PMS5003;30612;38.304;23.786;2024-02-23T12:02:41;2.00;2.00;1.00
44881;PMS5003;30612;38.304;23.786;2024-02-23T12:05:10;3.20;3.20;1.00
44881;PMS5003;30612;38.304;23.786;2024-02-23T12:07:37;1.00;1.00;1.00
44881;PMS5003;30612;38.304;23.786;2024-02-23T12:10:07;2.40;2.40;1.40
44881;PMS5003;30612;38.304;23.786;2024-02-23T12:12:35;2.60;1.40;0.80
44881;PMS5003;30612;38.304;23.786;2024-02-23T12:15:02;1.40;1.40;0.20
44881;PMS5003;30612;38.304;23.786;2024-02-23T12:17:30;1.60;1.60;1.00
44881;PMS5003;30612;38.304;23.786;2024-02-23T12:19:59;2.20;2.20;1.00
44881;PMS5003;30612;38.304;23.786;2024-02-23T12:22:27;3.00;3.00;2.00
44881;PMS5003;30612;38.304;23.786;2024-02-23T12:24:58;3.60;3.40;2.00
44881;PMS5003;30612;38.304;23.786;2024-02-23T12:27:26;2.40;2.40;1.00
44881;PMS5003;30612;38.304;23.786;2024-02-23T12:29:53;2.00;2.00;1.00
44881;PMS5003;30612;38.304;23.786;2024-02-23T12:32:21;2.20;2.20;1.20
44881;PMS5003;30612;38.304;23.786;2024-02-23T12:34:49;3.00;2.00;1.00
44881;PMS5003;30612;38.304;23.786;2024-02-23T12:37:20;3.20;2.40;1.00
44881;PMS5003;30612;38.304;23.786;2024-02-23T12:39:50;2.00;1.00;0.60
44881;PMS5003;30612;38.304;23.786;2024-02-23T12:42:18;2.00;2.00;1.00
44881;PMS5003;30612;38.304;23.786;2024-02-23T12:44:45;2.00;2.00;2.00
44881;PMS5003;30612;38.304;23.786;2024-02-23T12:47:14;2.60;2.60;1.00
44881;PMS5003;30612;38.304;23.786;2024-02-23T12:49:42;3.00;3.00;2.00
44881;PMS5003;30612;38.304;23.786;2024-02-23T12:52:11;3.00;3.00;2.00
44881;PMS5003;30612;38.304;23.786;2024-02-23T12:54:39;3.80;3.80;2.00
44881;PMS5003;30612;38.304;23.786;2024-02-23T12:57:08;2.00;1.60;0.00
44881;PMS5003;30612;38.304;23.786;2024-02-23T12:59:36;2.00;2.00;1.00
44881;PMS5003;30612;38.304;23.786;2024-02-23T13:02:03;2.00;2.00;1.00
44881;PMS5003;30612;38.304;23.786;2024-02-23T13:04:33;2.00;2.00;1.00
44881;PMS5003;30612;38.304;23.786;2024-02-23T13:07:00;2.00;2.00;1.00
44881;PMS5003;30612;38.304;23.786;2024-02-23T13:09:28;1.60;1.60;1.40
44881;PMS5003;30612;38.304;23.786;2024-02-23T13:11:55;1.60;1.60;0.00
44881;PMS5003;30612;38.304;23.786;2024-02-23T13:14:23;1.40;1.40;1.00
44881;PMS5003;30612;38.304;23.786;2024-02-23T13:16:50;1.60;1.60;1.00
44881;PMS5003;30612;38.304;23.786;2024-02-23T13:19:18;1.20;1.20;0.00
44881;PMS5003;30612;38.304;23.786;2024-02-23T13:21:45;2.00;2.00;1.60
44881;PMS5003;30612;38.304;23.786;2024-02-23T13:24:12;4.60;4.60;2.00
44881;PMS5003;30612;38.304;23.786;2024-02-23T13:26:40;1.60;1.60;1.00
44881;PMS5003;30612;38.304;23.786;2024-02-23T13:29:07;2.40;2.40;1.00
44881;PMS5003;30612;38.304;23.786;2024-02-23T13:31:35;4.00;4.00;2.00
44881;PMS5003;30612;38.304;23.786;2024-02-23T13:34:02;2.40;2.40;1.00
44881;PMS5003;30612;38.304;23.786;2024-02-23T13:36:30;3.20;3.20;1.00
44881;PMS5003;30612;38.304;23.786;2024-02-23T13:38:57;2.20;2.20;1.00
44881;PMS5003;30612;38.304;23.786;2024-02-23T13:41:26;1.00;1.00;0.60
44881;PMS5003;30612;38.304;23.786;2024-02-23T13:43:54;1.80;1.80;1.00
44881;PMS5003;30612;38.304;23.786;2024-02-23T13:46:22;1.20;1.20;1.00
44881;PMS5003;30612;38.304;23.786;2024-02-23T13:48:49;1.00;1.00;0.20
44881;PMS5003;30612;38.304;23.786;2024-02-23T13:51:29;1.00;1.00;0.00
44881;PMS5003;30612;38.304;23.786;2024-02-23T13:53:57;2.40;2.40;1.20
44881;PMS5003;30612;38.304;23.786;2024-02-23T13:56:25;2.00;2.00;1.60
44881;PMS5003;30612;38.304;23.786;2024-02-23T13:58:54;2.80;2.00;1.00
44881;PMS5003;30612;38.304;23.786;2024-02-23T14:01:21;2.20;2.20;1.20
44881;PMS5003;30612;38.304;23.786;2024-02-23T14:03:49;4.40;3.80;2.00
44881;PMS5003;30612;38.304;23.786;2024-02-23T14:06:16;6.00;6.00;2.00
44881;PMS5003;30612;38.304;23.786;2024-02-23T14:08:44;4.20;4.20;3.00
44881;PMS5003;30612;38.304;23.786;2024-02-23T14:11:14;2.60;2.60;1.60
44881;PMS5003;30612;38.304;23.786;2024-02-23T14:13:42;2.60;2.60;1.00